createdAt,value
2019-06-10T00:02:13.694Z,39.90
2019-06-10T00:04:43.544Z,39.94
2019-06-10T00:07:12.481Z,40.13
2019-06-10T00:09:42.027Z,40.13
2019-06-10T00:12:12.679Z,39.94
2019-06-10T00:14:41.905Z,40.07
2019-06-10T00:17:11.180Z,40.07
2019-06-10T00:19:41.042Z,40.25
2019-06-10T00:22:11.518Z,40.14
2019-06-10T00:24:41.153Z,40.06
2019-06-10T00:27:11.789Z,40.06
2019-06-10T00:29:40.927Z,40.18
2019-06-10T00:32:12.607Z,40.06
2019-06-10T00:34:41.693Z,40.06
2019-06-10T00:37:14.755Z,40.09
2019-06-10T00:39:42.117Z,40.08
2019-06-10T00:42:14.868Z,40.10
2019-06-10T00:44:41.972Z,40.29
2019-06-10T00:47:14.405Z,40.29
2019-06-10T00:49:43.167Z,40.31
2019-06-10T00:52:13.970Z,40.48
2019-06-10T00:54:42.852Z,40.48
2019-06-10T00:57:14.063Z,40.18
2019-06-10T00:59:42.555Z,40.18
2019-06-10T01:02:13.877Z,40.21
2019-06-10T01:04:41.657Z,39.91
2019-06-10T01:08:32.419Z,40.35
2019-06-10T01:11:05.502Z,40.24
2019-06-10T01:13:33.538Z,40.34
2019-06-10T01:16:03.434Z,40.34
2019-06-10T01:19:41.399Z,40.39
2019-06-10T01:22:11.133Z,40.39
2019-06-10T01:24:40.972Z,40.36
2019-06-10T01:27:11.893Z,40.48
2019-06-10T01:29:41.646Z,40.59
2019-06-10T01:32:12.280Z,40.47
2019-06-10T01:34:41.670Z,40.33
2019-06-10T01:40:38.522Z,40.31
2019-06-10T01:43:08.228Z,40.77
2019-06-10T01:45:37.563Z,40.77
2019-06-10T01:48:06.991Z,40.35
2019-06-10T01:50:34.917Z,40.54
2019-06-10T01:53:04.334Z,40.55
2019-06-10T01:56:15.443Z,40.56
2019-06-10T01:58:44.393Z,40.40
2019-06-10T02:01:25.838Z,40.40
2019-06-10T02:03:55.190Z,40.44
2019-06-10T02:06:25.772Z,40.51
2019-06-10T02:09:04.600Z,40.51
2019-06-10T02:11:34.882Z,40.76
2019-06-10T02:14:04.820Z,40.55
2019-06-10T02:16:33.450Z,40.55
2019-06-10T02:20:55.016Z,40.57
2019-06-10T02:23:24.459Z,40.56
2019-06-10T02:25:53.170Z,40.56
2019-06-10T02:30:26.299Z,40.68
2019-06-10T02:32:44.181Z,40.62
2019-06-10T02:35:18.131Z,40.62
2019-06-10T02:37:44.534Z,40.52
2019-06-10T02:40:18.504Z,40.66
2019-06-10T02:45:32.606Z,40.61
2019-06-10T02:47:55.401Z,40.60
2019-06-10T02:51:03.735Z,40.60
2019-06-10T02:53:35.860Z,40.80
2019-06-10T02:56:04.437Z,41.30
2019-06-10T02:58:38.476Z,41.30
2019-06-10T03:01:04.384Z,40.60
2019-06-10T03:03:43.279Z,40.59
2019-06-10T03:06:08.282Z,40.61
2019-06-10T03:08:37.611Z,40.55
2019-06-10T03:11:05.221Z,40.55
2019-06-10T03:14:17.744Z,40.46
2019-06-10T03:16:53.133Z,40.83
2019-06-10T03:19:38.210Z,40.66
2019-06-10T03:21:53.874Z,40.61
2019-06-10T03:24:25.176Z,40.58
2019-06-10T03:26:54.722Z,40.55
2019-06-10T03:29:25.343Z,40.55
2019-06-10T03:31:55.521Z,40.55
2019-06-10T03:34:33.968Z,40.55
2019-06-10T03:36:56.696Z,40.59
2019-06-10T03:39:27.372Z,40.75
2019-06-10T03:41:57.004Z,40.75
2019-06-10T03:44:28.471Z,40.75
2019-06-10T03:46:59.876Z,40.76
2019-06-10T03:49:28.910Z,41.10
2019-06-10T03:54:43.093Z,40.69
2019-06-10T03:57:12.131Z,40.75
2019-06-10T04:01:56.796Z,40.79
2019-06-10T04:04:26.757Z,40.75
2019-06-10T04:06:55.365Z,40.75
2019-06-10T04:09:25.855Z,40.80
2019-06-10T04:11:55.465Z,40.80
2019-06-10T04:14:26.310Z,40.83
2019-06-10T04:16:56.236Z,41.14
2019-06-10T04:19:27.057Z,41.14
2019-06-10T04:21:56.057Z,40.55
2019-06-10T04:24:25.749Z,40.55
2019-06-10T04:26:55.500Z,40.98
2019-06-10T04:29:25.907Z,40.94
2019-06-10T04:31:55.604Z,40.68
2019-06-10T04:37:58.933Z,41.01
2019-06-10T04:41:46.825Z,40.94
2019-06-10T04:44:15.418Z,40.98
2019-06-10T04:46:44.380Z,40.98
2019-06-10T04:49:13.368Z,41.00
2019-06-10T04:52:06.981Z,41.11
2019-06-10T04:54:35.993Z,41.03
2019-06-10T04:57:04.024Z,41.03
2019-06-10T04:59:33.971Z,41.10
2019-06-10T05:02:02.773Z,41.10
2019-06-10T05:04:32.942Z,41.04
2019-06-10T05:07:02.173Z,41.04
2019-06-10T05:09:33.331Z,40.99
2019-06-10T05:12:02.866Z,40.87
2019-06-10T05:14:33.369Z,40.87
2019-06-10T05:17:02.841Z,41.05
2019-06-10T05:19:33.757Z,41.04
2019-06-10T05:22:03.276Z,41.05
2019-06-10T05:24:34.443Z,41.05
2019-06-10T05:28:36.127Z,40.92
2019-06-10T05:31:04.739Z,41.18
2019-06-10T05:33:33.490Z,40.71
2019-06-10T05:36:02.464Z,41.01
2019-06-10T05:38:35.336Z,41.01
2019-06-10T05:41:03.291Z,41.14
2019-06-10T05:43:34.259Z,41.50
2019-06-10T05:46:03.310Z,41.15
2019-06-10T05:48:33.589Z,41.40
2019-06-10T05:51:06.310Z,41.40
2019-06-10T05:53:35.520Z,41.31
2019-06-10T05:56:03.838Z,41.12
2019-06-10T05:58:35.729Z,41.10
2019-06-10T06:01:03.401Z,41.10
2019-06-10T06:03:36.220Z,41.19
2019-06-10T06:06:04.017Z,41.11
2019-06-10T06:08:35.343Z,41.11
2019-06-10T06:11:04.394Z,41.09
2019-06-10T06:15:42.575Z,41.08
2019-06-10T06:18:14.132Z,41.08
2019-06-10T06:20:43.637Z,41.21
2019-06-10T06:23:12.988Z,41.00
2019-06-10T06:25:44.251Z,41.00
2019-06-10T06:28:16.165Z,41.12
2019-06-10T06:30:44.587Z,41.15
2019-06-10T06:34:52.837Z,41.14
2019-06-10T06:37:23.151Z,41.14
2019-06-10T06:39:52.378Z,41.22
2019-06-10T06:42:22.924Z,41.06
2019-06-10T06:44:52.556Z,41.16
2019-06-10T06:47:22.614Z,41.06
2019-06-10T06:49:53.090Z,41.18
2019-06-10T06:54:08.481Z,41.13
2019-06-10T06:56:39.293Z,41.13
2019-06-10T06:59:09.025Z,41.22
2019-06-10T07:01:40.930Z,41.17
2019-06-10T07:04:09.510Z,41.14
2019-06-10T07:06:40.264Z,41.20
2019-06-10T07:09:09.421Z,41.06
2019-06-10T07:11:38.992Z,41.12
2019-06-10T07:14:10.329Z,41.09
2019-06-10T07:16:41.671Z,41.09
2019-06-10T07:19:10.273Z,41.14
2019-06-10T07:21:58.456Z,41.18
2019-06-10T07:24:12.669Z,41.09
2019-06-10T07:26:50.539Z,41.09
2019-06-10T07:29:13.189Z,41.05
2019-06-10T07:31:45.582Z,40.94
2019-06-10T07:34:13.404Z,40.94
2019-06-10T07:36:44.117Z,40.89
2019-06-10T07:39:14.097Z,40.89
2019-06-10T07:42:34.887Z,41.03
2019-06-10T07:45:06.277Z,41.20
2019-06-10T07:47:35.319Z,40.98
2019-06-10T07:50:05.385Z,40.98
2019-06-10T07:52:35.925Z,41.01
2019-06-10T07:55:05.723Z,40.98
2019-06-10T07:57:36.061Z,40.96
2019-06-10T08:00:06.095Z,40.84
2019-06-10T08:04:55.829Z,40.96
2019-06-10T08:07:24.061Z,40.71
2019-06-10T08:09:53.522Z,40.94
2019-06-10T08:12:23.242Z,40.76
2019-06-10T08:14:55.402Z,40.68
2019-06-10T08:17:24.181Z,40.63
2019-06-10T08:22:40.002Z,40.93
2019-06-10T08:26:22.996Z,40.67
2019-06-10T08:28:53.119Z,40.69
2019-06-10T08:31:22.795Z,40.85
2019-06-10T08:33:53.933Z,40.85
2019-06-10T08:36:23.621Z,40.75
2019-06-10T08:38:53.078Z,40.75
2019-06-10T08:41:23.099Z,40.59
2019-06-10T08:43:53.041Z,40.82
2019-06-10T08:46:56.840Z,40.71
2019-06-10T08:49:25.172Z,40.71
2019-06-10T08:51:53.759Z,40.66
2019-06-10T08:54:23.506Z,40.66
2019-06-10T08:56:54.039Z,40.71
2019-06-10T08:59:23.518Z,40.81
2019-06-10T09:01:56.662Z,40.84
2019-06-10T09:04:24.568Z,40.78
2019-06-10T09:06:53.885Z,40.77
2019-06-10T09:09:22.633Z,40.87
2019-06-10T09:11:54.558Z,40.84
2019-06-10T09:14:23.453Z,40.77
2019-06-10T09:16:54.371Z,40.80
2019-06-10T09:19:22.257Z,40.80
2019-06-10T09:21:53.370Z,40.76
2019-06-10T09:24:22.330Z,40.51
2019-06-10T09:26:54.299Z,40.51
2019-06-10T09:29:22.308Z,40.78
2019-06-10T09:31:55.438Z,40.79
2019-06-10T09:34:23.822Z,40.83
2019-06-10T09:36:56.582Z,40.74
2019-06-10T09:39:23.637Z,41.35
2019-06-10T09:42:00.935Z,41.35
2019-06-10T09:44:24.176Z,40.61
2019-06-10T09:46:55.954Z,40.93
2019-06-10T09:49:22.320Z,40.78
2019-06-10T09:51:55.952Z,40.97
2019-06-10T09:54:22.774Z,40.97
2019-06-10T09:58:55.824Z,40.87
2019-06-10T10:01:24.799Z,40.87
2019-06-10T10:03:59.338Z,40.97
2019-06-10T10:06:24.793Z,40.96
2019-06-10T10:08:58.353Z,40.84
2019-06-10T10:11:28.448Z,40.84
2019-06-10T10:13:56.557Z,40.76
2019-06-10T10:16:25.296Z,40.77
2019-06-10T10:19:00.364Z,40.70
2019-06-10T10:21:24.715Z,40.70
2019-06-10T10:24:06.207Z,40.72
2019-06-10T10:26:26.117Z,40.68
2019-06-10T10:28:56.959Z,40.56
2019-06-10T10:31:25.913Z,40.56
2019-06-10T10:33:55.149Z,40.59
2019-06-10T10:36:24.632Z,40.41
2019-06-10T10:38:53.557Z,40.30
2019-06-10T10:41:24.200Z,40.28
2019-06-10T10:43:57.799Z,40.28
2019-06-10T10:46:24.817Z,40.19
2019-06-10T10:50:22.385Z,40.19
2019-06-10T10:53:32.834Z,40.09
2019-06-10T10:56:02.876Z,40.09
2019-06-10T10:58:33.243Z,40.13
2019-06-10T11:01:04.342Z,40.08
2019-06-10T11:03:33.661Z,40.08
2019-06-10T11:06:03.146Z,40.19
2019-06-10T11:08:33.655Z,40.19
2019-06-10T11:11:04.561Z,39.79
2019-06-10T11:13:34.677Z,39.79
2019-06-10T11:16:04.472Z,39.80
2019-06-10T11:18:34.178Z,39.74
2019-06-10T11:21:05.209Z,39.73
2019-06-10T11:23:35.030Z,39.75
2019-06-10T11:28:19.724Z,39.55
2019-06-10T11:30:49.350Z,39.55
2019-06-10T11:33:22.513Z,39.66
2019-06-10T11:35:53.684Z,39.66
2019-06-10T11:39:06.717Z,39.68
2019-06-10T11:41:35.230Z,39.63
2019-06-10T11:44:04.233Z,39.59
2019-06-10T11:48:10.018Z,40.26
2019-06-10T11:50:42.854Z,39.84
2019-06-10T11:53:12.786Z,39.84
2019-06-10T11:55:42.421Z,39.70
2019-06-10T11:58:11.038Z,39.68
2019-06-10T12:00:42.521Z,39.68
2019-06-10T12:03:13.029Z,39.60
2019-06-10T12:07:09.546Z,39.64
2019-06-10T12:09:38.463Z,39.75
2019-06-10T12:12:07.816Z,39.67
2019-06-10T12:14:37.618Z,39.68
2019-06-10T12:17:22.196Z,39.64
2019-06-10T12:19:37.773Z,39.71
2019-06-10T12:22:07.544Z,39.62
2019-06-10T12:24:36.693Z,39.62
2019-06-10T12:27:05.676Z,39.69
2019-06-10T12:29:35.120Z,39.79
2019-06-10T12:32:07.099Z,40.10
2019-06-10T12:34:34.210Z,40.29
2019-06-10T12:37:10.659Z,40.03
2019-06-10T12:39:35.078Z,40.03
2019-06-10T12:44:29.345Z,39.78
2019-06-10T12:46:59.684Z,39.77
2019-06-10T12:49:27.862Z,39.73
2019-06-10T12:51:57.408Z,39.67
2019-06-10T12:54:27.469Z,39.21
2019-06-10T12:56:56.655Z,39.66
2019-06-10T12:59:27.445Z,39.66
2019-06-10T13:01:58.085Z,39.78
2019-06-10T13:04:28.487Z,39.78
2019-06-10T13:06:59.690Z,39.82
2019-06-10T13:09:29.118Z,39.78
2019-06-10T13:11:58.188Z,39.78
2019-06-10T13:14:27.610Z,40.03
2019-06-10T13:16:57.957Z,40.03
2019-06-10T13:19:28.770Z,39.69
2019-06-10T13:21:57.267Z,39.69
2019-06-10T13:24:27.849Z,39.90
2019-06-10T13:26:56.567Z,39.90
2019-06-10T13:29:25.249Z,39.91
2019-06-10T13:31:53.468Z,39.93
2019-06-10T13:34:22.622Z,39.93
2019-06-10T13:36:53.092Z,40.03
2019-06-10T13:39:22.438Z,40.01
2019-06-10T13:44:34.714Z,40.79
2019-06-10T13:47:08.108Z,40.77
2019-06-10T13:49:34.188Z,40.83
2019-06-10T13:52:08.887Z,40.65
2019-06-10T13:54:34.461Z,40.71
2019-06-10T13:57:05.046Z,40.59
2019-06-10T13:59:32.592Z,40.63
2019-06-10T14:02:03.715Z,40.61
2019-06-10T14:04:33.318Z,40.67
2019-06-10T14:07:07.392Z,40.67
2019-06-10T14:09:33.137Z,40.63
2019-06-10T14:12:02.031Z,41.13
2019-06-10T14:14:30.275Z,41.13
2019-06-10T14:16:59.134Z,41.04
2019-06-10T14:19:27.584Z,41.64
2019-06-10T14:21:56.756Z,41.64
2019-06-10T14:24:25.681Z,41.64
2019-06-10T14:26:54.467Z,41.25
2019-06-10T14:29:23.227Z,41.33
2019-06-10T14:31:53.245Z,41.39
2019-06-10T14:34:22.974Z,41.39
2019-06-10T14:36:52.543Z,41.67
2019-06-10T14:39:22.152Z,41.46
2019-06-10T14:41:52.346Z,41.45
2019-06-10T14:44:23.266Z,41.43
2019-06-10T14:46:53.028Z,41.40
2019-06-10T14:49:22.270Z,41.55
2019-06-10T14:51:53.636Z,41.84
2019-06-10T14:54:22.764Z,41.79
2019-06-10T14:56:56.871Z,42.01
2019-06-10T14:59:22.437Z,42.01
2019-06-10T15:01:52.165Z,42.18
2019-06-10T15:04:22.486Z,41.92
2019-06-10T15:06:53.464Z,41.95
2019-06-10T15:09:22.812Z,41.95
2019-06-10T15:11:52.763Z,41.97
2019-06-10T15:14:23.357Z,41.88
2019-06-10T15:16:53.348Z,41.88
2019-06-10T15:19:28.308Z,41.92
2019-06-10T15:21:55.019Z,42.06
2019-06-10T15:24:24.383Z,42.34
2019-06-10T15:27:07.899Z,42.34
2019-06-10T15:29:23.606Z,42.09
2019-06-10T15:32:06.030Z,41.91
2019-06-10T15:34:21.874Z,42.56
2019-06-10T15:36:52.593Z,42.56
2019-06-10T15:39:23.968Z,42.16
2019-06-10T15:41:52.274Z,42.16
2019-06-10T15:47:03.614Z,42.05
2019-06-10T15:49:32.824Z,42.02
2019-06-10T15:52:03.331Z,42.02
2019-06-10T15:54:33.305Z,41.97
2019-06-10T15:57:03.214Z,42.04
2019-06-10T15:59:31.754Z,42.04
2019-06-10T16:02:02.583Z,42.04
2019-06-10T16:04:34.967Z,42.04
2019-06-10T16:07:02.834Z,42.43
2019-06-10T16:09:32.362Z,42.29
2019-06-10T16:12:02.907Z,42.14
2019-06-10T16:14:33.318Z,42.14
2019-06-10T16:17:03.124Z,42.03
2019-06-10T16:19:32.936Z,42.05
2019-06-10T16:22:03.085Z,42.05
2019-06-10T16:24:33.271Z,42.11
2019-06-10T16:27:03.308Z,41.96
2019-06-10T16:29:33.357Z,42.11
2019-06-10T16:32:02.533Z,42.17
2019-06-10T16:34:32.413Z,42.21
2019-06-10T16:37:02.357Z,42.36
2019-06-10T16:39:32.592Z,42.30
2019-06-10T16:42:03.009Z,42.36
2019-06-10T16:44:33.078Z,42.36
2019-06-10T16:47:03.302Z,42.28
2019-06-10T16:49:32.982Z,42.73
2019-06-10T16:52:02.942Z,42.23
2019-06-10T16:54:33.059Z,42.23
2019-06-10T16:57:03.893Z,42.22
2019-06-10T16:59:32.972Z,42.05
2019-06-10T17:02:02.288Z,42.14
2019-06-10T17:04:33.192Z,42.14
2019-06-10T17:07:02.376Z,42.11
2019-06-10T17:09:32.892Z,42.15
2019-06-10T17:12:02.372Z,42.31
2019-06-10T17:14:33.639Z,42.31
2019-06-10T17:17:03.592Z,42.64
2019-06-10T17:19:33.399Z,42.54
2019-06-10T17:22:02.645Z,42.54
2019-06-10T17:24:33.645Z,42.50
2019-06-10T17:27:02.677Z,42.27
2019-06-10T17:29:33.486Z,42.29
2019-06-10T17:32:02.901Z,42.33
2019-06-10T17:34:33.932Z,42.15
2019-06-10T17:37:03.148Z,42.15
2019-06-10T17:39:34.874Z,42.25
2019-06-10T17:42:03.486Z,42.26
2019-06-10T17:44:32.535Z,42.35
2019-06-10T17:47:02.288Z,42.35
2019-06-10T17:49:34.450Z,42.44
2019-06-10T17:52:03.392Z,42.44
2019-06-10T17:54:32.502Z,42.61
2019-06-10T17:57:02.350Z,42.63
2019-06-10T17:59:33.600Z,42.63
2019-06-10T18:02:03.118Z,42.47
2019-06-10T18:06:22.468Z,42.86
2019-06-10T18:08:52.685Z,42.78
2019-06-10T18:11:24.325Z,42.61
2019-06-10T18:13:52.197Z,42.61
2019-06-10T18:16:22.798Z,42.64
2019-06-10T18:18:52.485Z,42.69
2019-06-10T18:21:22.357Z,42.69
2019-06-10T18:23:52.914Z,42.66
2019-06-10T18:26:23.059Z,42.68
2019-06-10T18:29:01.932Z,42.68
2019-06-10T18:31:23.545Z,42.65
2019-06-10T18:33:53.072Z,42.65
2019-06-10T18:36:24.456Z,42.45
2019-06-10T18:38:52.988Z,43.21
2019-06-10T18:41:22.520Z,43.21
2019-06-10T18:43:51.225Z,42.82
2019-06-10T18:46:23.174Z,42.82
2019-06-10T18:48:53.658Z,42.79
2019-06-10T18:51:23.089Z,42.79
2019-06-10T18:53:51.190Z,42.78
2019-06-10T18:56:19.333Z,42.74
2019-06-10T18:58:49.255Z,43.14
2019-06-10T19:01:18.168Z,42.82
2019-06-10T19:03:47.074Z,42.82
2019-06-10T19:06:15.461Z,42.87
2019-06-10T19:08:44.581Z,42.87
2019-06-10T19:11:12.727Z,42.93
2019-06-10T19:13:43.589Z,42.91
2019-06-10T19:16:12.956Z,42.88
2019-06-10T19:18:43.767Z,42.94
2019-06-10T19:21:12.852Z,42.89
2019-06-10T19:23:43.801Z,42.71
2019-06-10T19:26:13.451Z,42.71
2019-06-10T19:28:45.129Z,42.84
2019-06-10T19:31:13.680Z,42.94
2019-06-10T19:33:45.206Z,42.94
2019-06-10T19:36:13.955Z,43.20
2019-06-10T19:38:44.256Z,43.03
2019-06-10T19:41:13.835Z,43.03
2019-06-10T19:46:19.493Z,43.08
2019-06-10T19:48:56.556Z,43.08
2019-06-10T19:51:18.921Z,42.92
2019-06-10T19:53:47.601Z,42.82
2019-06-10T19:56:16.952Z,42.71
2019-06-10T19:58:46.531Z,42.91
2019-06-10T20:01:14.687Z,42.91
2019-06-10T20:03:46.426Z,42.63
2019-06-10T20:06:13.770Z,42.63
2019-06-10T20:08:44.766Z,42.80
2019-06-10T20:11:12.877Z,42.83
2019-06-10T20:13:43.227Z,42.83
2019-06-10T20:16:12.121Z,42.92
2019-06-10T20:18:45.197Z,42.92
2019-06-10T20:21:12.904Z,42.97
2019-06-10T20:23:44.555Z,43.08
2019-06-10T20:26:14.435Z,42.86
2019-06-10T20:28:43.770Z,42.89
2019-06-10T20:31:16.262Z,42.88
2019-06-10T20:33:44.846Z,42.63
2019-06-10T20:36:22.018Z,42.63
2019-06-10T20:38:48.401Z,42.73
2019-06-10T20:41:16.783Z,42.73
2019-06-10T20:43:47.121Z,42.82
2019-06-10T20:46:17.154Z,42.82
2019-06-10T20:48:49.431Z,42.82
2019-06-10T20:51:17.408Z,43.01
2019-06-10T20:53:47.959Z,42.95
2019-06-10T20:56:20.232Z,42.90
2019-06-10T20:58:49.728Z,43.20
2019-06-10T21:01:19.164Z,43.20
2019-06-10T21:03:49.300Z,42.63
2019-06-10T21:06:17.525Z,42.63
2019-06-10T21:08:49.921Z,42.89
2019-06-10T21:11:18.388Z,42.90
2019-06-10T21:13:50.742Z,42.90
2019-06-10T21:16:17.685Z,43.05
2019-06-10T21:18:48.714Z,43.09
2019-06-10T21:21:17.988Z,43.09
2019-06-10T21:23:47.634Z,42.98
2019-06-10T21:26:18.222Z,42.98
2019-06-10T21:28:48.944Z,42.90
2019-06-10T21:31:17.804Z,43.03
2019-06-10T21:33:49.053Z,42.82
2019-06-10T21:36:16.654Z,42.82
2019-06-10T21:38:48.165Z,43.11
2019-06-10T21:41:16.700Z,42.97
2019-06-10T21:43:49.392Z,42.98
2019-06-10T21:46:15.595Z,42.82
2019-06-10T21:48:45.744Z,42.82
2019-06-10T21:51:14.408Z,42.92
2019-06-10T21:53:42.471Z,42.93
2019-06-10T21:56:12.799Z,42.93
2019-06-10T21:58:42.317Z,42.94
2019-06-10T22:01:14.159Z,42.98
2019-06-10T22:03:44.469Z,43.12
2019-06-10T22:06:12.302Z,43.15
2019-06-10T22:08:42.447Z,42.96
2019-06-10T22:11:13.829Z,43.20
2019-06-10T22:13:44.087Z,43.20
2019-06-10T22:16:12.297Z,43.07
2019-06-10T22:18:41.107Z,43.12
2019-06-10T22:21:09.856Z,43.12
2019-06-10T22:23:39.004Z,42.99
2019-06-10T22:26:07.046Z,43.06
2019-06-10T22:28:37.064Z,43.06
2019-06-10T22:31:19.769Z,43.06
2019-06-10T22:33:35.957Z,43.02
2019-06-10T22:36:05.872Z,43.05
2019-06-10T22:38:37.589Z,43.29
2019-06-10T22:41:06.162Z,43.29
2019-06-10T22:43:34.368Z,43.17
2019-06-10T22:46:04.010Z,43.24
2019-06-10T22:48:33.880Z,43.24
2019-06-10T22:51:02.035Z,43.09
2019-06-10T22:53:33.329Z,43.09
2019-06-10T22:56:02.990Z,43.09
2019-06-10T22:58:33.154Z,43.09
2019-06-10T23:01:04.298Z,43.07
2019-06-10T23:03:33.555Z,43.09
2019-06-10T23:06:02.622Z,43.11
2019-06-10T23:08:33.446Z,43.11
2019-06-10T23:11:03.616Z,43.13
2019-06-10T23:13:33.334Z,43.19
2019-06-10T23:16:02.550Z,43.38
2019-06-10T23:18:32.054Z,43.38
2019-06-10T23:21:04.019Z,43.17
2019-06-10T23:23:32.591Z,43.27
2019-06-10T23:26:02.951Z,43.27
2019-06-10T23:28:33.420Z,43.32
2019-06-10T23:31:04.983Z,43.28
2019-06-10T23:33:32.767Z,43.28
2019-06-10T23:36:03.725Z,43.33
2019-06-10T23:38:32.874Z,43.29
2019-06-10T23:41:03.767Z,43.29
2019-06-10T23:43:33.133Z,43.29
2019-06-10T23:46:04.098Z,43.21
2019-06-10T23:48:32.989Z,43.39
2019-06-10T23:51:04.682Z,43.39
2019-06-10T23:53:32.848Z,43.29
2019-06-10T23:56:04.727Z,43.47
2019-06-10T23:58:32.993Z,43.45
